Time;durP1;ratioP1;P1;durP2;ratioP2;P2;SDS_P1;SDS_P2;PMS_P1;PMS_P2;Temp;Humidity;BMP_temperature;BMP_pressure;BME280_temperature;BME280_humidity;BME280_pressure;Samples;Min_cycle;Max_cycle;Signal;HPM_P1;HPM_P2
2022/04/04 00:02:28;;;;;;;;;;;;;;;-139.48;100.00;61774.03;5033598;28;20431;-75
2022/04/04 00:05:12;;;;;;;;;;;;;;;-139.48;100.00;61774.03;5019259;28;19920;-75
2022/04/04 00:07:56;;;;;;;;;;;;;;;-139.48;100.00;61774.03;5032692;28;19919;-75
2022/04/04 00:10:40;;;;;;;;;;;;;;;-139.48;100.00;61774.03;5032715;28;19936;-75
2022/04/04 00:13:24;;;;;;;;;;;;;;;-139.48;100.00;61774.03;5032626;28;19924;-75
2022/04/04 00:16:08;;;;;;;;;;;;;;;-139.48;100.00;61774.03;5033548;28;19947;-75
2022/04/04 00:18:52;;;;;;;;;;;;;;;-139.48;100.00;61774.03;5018625;28;20296;-75
2022/04/04 00:21:37;;;;;;;;;;;;;;;-139.48;100.00;61774.03;5032611;28;19920;-75
2022/04/04 00:24:21;;;;;;;;;;;;;;;-139.48;100.00;61774.03;5018537;28;20019;-75
2022/04/04 00:27:05;;;;;;;;;;;;;;;-139.48;100.00;61774.03;5032406;28;19920;-75
2022/04/04 00:29:49;;;;;;;;;;;;;;;-139.48;100.00;61774.03;5032546;28;20012;-76
2022/04/04 00:32:33;;;;;;;;;;;;;;;-139.48;100.00;61774.03;5018544;28;19975;-75
2022/04/04 00:35:17;;;;;;;;;;;;;;;-139.48;100.00;61774.03;5018445;28;20068;-75
2022/04/04 00:38:02;;;;;;;;;;;;;;;-139.48;100.00;61774.03;5033164;28;20359;-75
2022/04/04 00:40:45;;;;;;;;;;;;;;;-139.48;100.00;61774.03;5032437;28;20010;-75
2022/04/04 00:43:29;;;;;;;;;;;;;;;-139.48;100.00;61774.03;5032424;28;19963;-76
2022/04/04 00:46:13;;;;;;;;;;;;;;;-139.48;100.00;61774.03;5034018;28;19966;-75
2022/04/04 00:48:57;;;;;;;;;;;;;;;-139.48;100.00;61774.03;5037024;28;20279;-76
2022/04/04 00:51:41;;;;;;;;;;;;;;;-139.48;100.00;61774.03;5021937;28;20343;-76
2022/04/04 00:54:25;;;;;;;;;;;;;;;-139.48;100.00;61774.03;5035606;28;19967;-75
2022/04/04 00:57:09;;;;;;;;;;;;;;;-139.48;100.00;61774.03;5035609;28;19919;-75
2022/04/04 00:59:53;;;;;;;;;;;;;;;-139.48;100.00;61774.03;5036109;28;19959;-76
2022/04/04 01:02:38;;;;;;;;;;;;;;;-139.48;100.00;61774.03;5035782;28;19979;-76
2022/04/04 01:05:22;;;;;;;;;;;;;;;-139.48;100.00;61774.03;5036332;28;20011;-75
2022/04/04 01:08:06;;;;;;;;;;;;;;;-139.48;100.00;61774.03;5021669;28;19963;-75
2022/04/04 01:10:53;;;;;;;;;;;;;;;-139.48;100.00;61774.03;5021639;28;19920;-76
2022/04/04 01:13:37;;;;;;;;;;;;;;;-139.48;100.00;61774.03;5036173;28;20018;-76
2022/04/04 01:16:20;;;;;;;;;;;;;;;-139.48;100.00;61774.03;5036015;28;19966;-76
2022/04/04 01:19:04;;;;;;;;;;;;;;;-139.48;100.00;61774.03;5035451;28;19920;-76
2022/04/04 01:21:48;;;;;;;;;;;;;;;-139.48;100.00;61774.03;5036388;28;19920;-75
2022/04/04 01:24:32;;;;;;;;;;;;;;;-139.48;100.00;61774.03;5036260;28;19920;-75
2022/04/04 01:27:16;;;;;;;;;;;;;;;-139.48;100.00;61774.03;5036279;28;19967;-75
2022/04/04 01:30:01;;;;;;;;;;;;;;;-139.48;100.00;61774.03;5036240;28;19920;-75
2022/04/04 01:32:45;;;;;;;;;;;;;;;-139.48;100.00;61774.03;5034848;28;19919;-76
2022/04/04 01:35:29;;;;;;;;;;;;;;;-139.48;100.00;61774.03;5035103;28;19920;-75
2022/04/04 01:38:13;;;;;;;;;;;;;;;-139.48;100.00;61774.03;5034886;28;20347;-75
2022/04/04 01:40:57;;;;;;;;;;;;;;;-139.48;100.00;61774.03;5036100;28;19919;-75
2022/04/04 01:43:41;;;;;;;;;;;;;;;-139.48;100.00;61774.03;5034735;28;19920;-75
2022/04/04 01:46:25;;;;;;;;;;;;;;;-139.48;100.00;61774.03;5035564;28;20403;-75
2022/04/04 01:49:09;;;;;;;;;;;;;;;-139.48;100.00;61774.03;5021199;28;19920;-75
2022/04/04 01:51:53;;;;;;;;;;;;;;;-139.48;100.00;61774.03;5020861;28;20368;-76
2022/04/04 01:54:37;;;;;;;;;;;;;;;-139.48;100.00;61774.03;5034706;28;19924;-76
2022/04/04 01:57:21;;;;;;;;;;;;;;;-139.48;100.00;61774.03;5034717;28;19920;-75
2022/04/04 02:00:05;;;;;;;;;;;;;;;-139.48;100.00;61774.03;5035686;28;19919;-76
2022/04/04 02:02:49;;;;;;;;;;;;;;;-139.48;100.00;61774.03;5034354;28;19919;-76
2022/04/04 02:05:33;;;;;;;;;;;;;;;-139.48;100.00;61774.03;5020250;28;20395;-75
2022/04/04 02:08:17;;;;;;;;;;;;;;;-139.48;100.00;61774.03;5034560;28;19919;-76
2022/04/04 02:11:02;;;;;;;;;;;;;;;-139.48;100.00;61774.03;5035209;28;19935;-76
2022/04/04 02:13:46;;;;;;;;;;;;;;;-139.48;100.00;61774.03;5020142;28;19924;-75
2022/04/04 02:16:29;;;;;;;;;;;;;;;-139.48;100.00;61774.03;5034692;28;19920;-75
2022/04/04 02:19:13;;;;;;;;;;;;;;;-139.48;100.00;61774.03;5034049;28;19979;-75
2022/04/04 02:21:57;;;;;;;;;;;;;;;-139.48;100.00;61774.03;5034211;28;19920;-76
2022/04/04 02:24:41;;;;;;;;;;;;;;;-139.48;100.00;61774.03;5034844;28;20013;-75
2022/04/04 02:27:25;;;;;;;;;;;;;;;-139.48;100.00;61774.03;5035193;28;19920;-75
2022/04/04 02:30:10;;;;;;;;;;;;;;;-139.48;100.00;61774.03;5034117;28;19966;-75
2022/04/04 02:32:54;;;;;;;;;;;;;;;-139.48;100.00;61774.03;5034961;28;20037;-75
2022/04/04 02:35:38;;;;;;;;;;;;;;;-139.48;100.00;61774.03;5019714;28;19960;-75
2022/04/04 02:38:26;;;;;;;;;;;;;;;-139.48;100.00;61774.03;5020350;28;20423;-75
2022/04/04 02:41:10;;;;;;;;;;;;;;;-139.48;100.00;61774.03;5033909;28;20284;-75
2022/04/04 02:43:54;;;;;;;;;;;;;;;-139.48;100.00;61774.03;5033919;28;19924;-75
2022/04/04 02:46:38;;;;;;;;;;;;;;;-139.48;100.00;61774.03;5034528;28;19998;-75
2022/04/04 02:49:23;;;;;;;;;;;;;;;-139.48;100.00;61774.03;5035038;28;19964;-75
2022/04/04 02:52:07;;;;;;;;;;;;;;;-139.48;100.00;61774.03;5034383;28;19959;-76
2022/04/04 02:54:51;;;;;;;;;;;;;;;-139.48;100.00;61774.03;5019296;28;20085;-75
2022/04/04 02:57:35;;;;;;;;;;;;;;;-139.48;100.00;61774.03;5034568;28;20269;-75
2022/04/04 03:00:19;;;;;;;;;;;;;;;-139.48;100.00;61774.03;5034825;28;20371;-75
2022/04/04 03:03:03;;;;;;;;;;;;;;;-139.48;100.00;61774.03;5019283;28;20427;-75
2022/04/04 03:05:47;;;;;;;;;;;;;;;-139.48;100.00;61774.03;5019183;28;19920;-75
2022/04/04 03:08:31;;;;;;;;;;;;;;;-139.48;100.00;61774.03;5034191;28;19919;-75
2022/04/04 03:11:15;;;;;;;;;;;;;;;-139.48;100.00;61774.03;5034379;28;19959;-76
2022/04/04 03:13:59;;;;;;;;;;;;;;;-139.48;100.00;61774.03;5019244;28;19943;-76
2022/04/04 03:16:43;;;;;;;;;;;;;;;-139.48;100.00;61774.03;5034554;28;19993;-75
2022/04/04 03:19:27;;;;;;;;;;;;;;;-139.48;100.00;61774.03;5019347;28;19963;-75
2022/04/04 03:22:12;;;;;;;;;;;;;;;-139.48;100.00;61774.03;5034222;28;19971;-76
2022/04/04 03:24:56;;;;;;;;;;;;;;;-139.48;100.00;61774.03;5033807;28;20395;-76
2022/04/04 03:27:41;;;;;;;;;;;;;;;-139.48;100.00;61774.03;5033143;28;19936;-75
2022/04/04 03:30:27;;;;;;;;;;;;;;;-139.48;100.00;61774.03;5018846;28;19967;-75
2022/04/04 03:33:10;;;;;;;;;;;;;;;-139.48;100.00;61774.03;5034009;28;19924;-75
2022/04/04 03:35:54;;;;;;;;;;;;;;;-139.48;100.00;61774.03;5033989;28;19923;-75
2022/04/04 03:38:38;;;;;;;;;;;;;;;-139.48;100.00;61774.03;5033076;28;19963;-75
2022/04/04 03:41:22;;;;;;;;;;;;;;;-139.48;100.00;61774.03;5018780;28;19920;-76
2022/04/04 03:44:06;;;;;;;;;;;;;;;-139.48;100.00;61774.03;5033904;28;19936;-75
2022/04/04 03:46:50;;;;;;;;;;;;;;;-139.48;100.00;61774.03;5019025;28;19935;-75
2022/04/04 03:49:34;;;;;;;;;;;;;;;-139.48;100.00;61774.03;5018994;28;20003;-75
2022/04/04 03:52:19;;;;;;;;;;;;;;;-139.48;100.00;61774.03;5033594;28;19919;-76
2022/04/04 03:55:03;;;;;;;;;;;;;;;-139.48;100.00;61774.03;5033622;28;20020;-75
2022/04/04 03:57:48;;;;;;;;;;;;;;;-139.48;100.00;61774.03;5018555;28;19963;-76
2022/04/04 04:00:32;;;;;;;;;;;;;;;-139.48;100.00;61774.03;5032827;28;19967;-76
2022/04/04 04:03:16;;;;;;;;;;;;;;;-139.48;100.00;61774.03;5018680;28;20400;-75
2022/04/04 04:06:12;;;;;;;;;;;;;;;-139.48;100.00;61774.03;5032749;28;19919;-75
2022/04/04 04:08:57;;;;;;;;;;;;;;;-139.48;100.00;61774.03;5033704;28;19920;-76
2022/04/04 04:11:41;;;;;;;;;;;;;;;-139.48;100.00;61774.03;5033419;28;19936;-75
2022/04/04 04:14:25;;;;;;;;;;;;;;;-139.48;100.00;61774.03;5018164;28;19924;-75
2022/04/04 04:17:09;;;;;;;;;;;;;;;-139.48;100.00;61774.03;5033348;28;19920;-75
2022/04/04 04:22:58;;;;;;;;;;;;;;;-139.48;100.00;61774.03;5036596;28;19920;-75
2022/04/04 04:25:42;;;;;;;;;;;;;;;-139.48;100.00;61774.03;5036156;28;19924;-75
2022/04/04 04:28:26;;;;;;;;;;;;;;;-139.48;100.00;61774.03;5037122;28;19920;-75
2022/04/04 04:31:10;;;;;;;;;;;;;;;-139.48;100.00;61774.03;5036207;28;19982;-75
2022/04/04 04:33:54;;;;;;;;;;;;;;;-139.48;100.00;61774.03;5036246;28;19948;-75
2022/04/04 04:36:39;;;;;;;;;;;;;;;-139.48;100.00;61774.03;5037253;28;19920;-75
2022/04/04 04:39:23;;;;;;;;;;;;;;;-139.48;100.00;61774.03;5036312;28;19947;-75
2022/04/04 04:42:07;;;;;;;;;;;;;;;-139.48;100.00;61774.03;5022196;28;20439;-75
2022/04/04 04:44:51;;;;;;;;;;;;;;;-139.48;100.00;61774.03;5022077;28;20383;-75
2022/04/04 04:47:35;;;;;;;;;;;;;;;-139.48;100.00;61774.03;5035868;28;19967;-75
2022/04/04 04:50:19;;;;;;;;;;;;;;;-139.48;100.00;61774.03;5035738;28;20427;-75
2022/04/04 04:53:03;;;;;;;;;;;;;;;-139.48;100.00;61774.03;5035625;28;19920;-75
2022/04/04 04:55:46;;;;;;;;;;;;;;;-139.48;100.00;61774.03;5035613;28;19919;-75
2022/04/04 04:58:30;;;;;;;;;;;;;;;-139.48;100.00;61774.03;5021614;28;19963;-75
2022/04/04 05:01:14;;;;;;;;;;;;;;;-139.48;100.00;61774.03;5035826;28;20018;-76
2022/04/04 05:03:58;;;;;;;;;;;;;;;-139.48;100.00;61774.03;5021724;28;19987;-75
2022/04/04 05:06:42;;;;;;;;;;;;;;;-139.48;100.00;61774.03;5036395;28;19966;-75
2022/04/04 05:09:26;;;;;;;;;;;;;;;-139.48;100.00;61774.03;5036367;28;19920;-75
2022/04/04 05:12:11;;;;;;;;;;;;;;;-139.48;100.00;61774.03;5036878;28;19967;-76
2022/04/04 05:14:55;;;;;;;;;;;;;;;-139.48;100.00;61774.03;5035993;28;20000;-75
2022/04/04 05:17:39;;;;;;;;;;;;;;;-139.48;100.00;61774.03;5021546;28;20375;-76
2022/04/04 05:20:23;;;;;;;;;;;;;;;-139.48;100.00;61774.03;5021442;28;20000;-76
2022/04/04 05:23:07;;;;;;;;;;;;;;;-139.48;100.00;61774.03;5035107;28;20406;-75
2022/04/04 05:25:51;;;;;;;;;;;;;;;-139.48;100.00;61774.03;5035017;28;19919;-75
2022/04/04 05:28:35;;;;;;;;;;;;;;;-139.48;100.00;61774.03;5035052;28;19963;-75
2022/04/04 05:31:19;;;;;;;;;;;;;;;-139.48;100.00;61774.03;5034905;28;19966;-75
2022/04/04 05:34:04;;;;;;;;;;;;;;;-139.48;100.00;61774.03;5020788;28;19924;-75
2022/04/04 05:36:48;;;;;;;;;;;;;;;-139.48;100.00;61774.03;5020908;28;19919;-75
2022/04/04 05:39:33;;;;;;;;;;;;;;;-139.48;100.00;61774.03;5034791;28;19920;-75
2022/04/04 05:42:17;;;;;;;;;;;;;;;-139.48;100.00;61774.03;5034768;28;19963;-75
2022/04/04 05:45:01;;;;;;;;;;;;;;;-139.48;100.00;61774.03;5020948;28;20007;-75
2022/04/04 05:47:45;;;;;;;;;;;;;;;-139.48;100.00;61774.03;5034961;28;19920;-75
2022/04/04 05:50:29;;;;;;;;;;;;;;;-139.48;100.00;61774.03;5034659;28;19920;-75
2022/04/04 05:53:13;;;;;;;;;;;;;;;-139.48;100.00;61774.03;5020539;28;19974;-75
2022/04/04 05:55:57;;;;;;;;;;;;;;;-139.48;100.00;61774.03;5036007;28;19967;-75
2022/04/04 05:58:41;;;;;;;;;;;;;;;-139.48;100.00;61774.03;5034542;28;19920;-75
2022/04/04 06:01:24;;;;;;;;;;;;;;;-139.48;100.00;61774.03;5034894;28;19920;-75
2022/04/04 06:04:08;;;;;;;;;;;;;;;-139.48;100.00;61774.03;5034579;28;19959;-75
2022/04/04 06:06:52;;;;;;;;;;;;;;;-139.48;100.00;61774.03;5035290;28;19920;-75
2022/04/04 06:09:36;;;;;;;;;;;;;;;-139.48;100.00;61774.03;5035236;28;19920;-75
2022/04/04 06:12:20;;;;;;;;;;;;;;;-139.48;100.00;61774.03;5020195;28;20380;-75
2022/04/04 06:15:04;;;;;;;;;;;;;;;-139.48;100.00;61774.03;5034945;28;19923;-76
2022/04/04 06:17:48;;;;;;;;;;;;;;;-139.48;100.00;61774.03;5020220;28;19963;-75
2022/04/04 06:20:32;;;;;;;;;;;;;;;-139.48;100.00;61774.03;5034329;28;20470;-76
2022/04/04 06:23:16;;;;;;;;;;;;;;;-139.48;100.00;61774.03;5020296;28;20431;-75
2022/04/04 06:26:01;;;;;;;;;;;;;;;-139.48;100.00;61774.03;5019879;28;19935;-75
2022/04/04 06:28:45;;;;;;;;;;;;;;;-139.48;100.00;61774.03;5035452;28;19935;-75
2022/04/04 06:31:28;;;;;;;;;;;;;;;-139.48;100.00;61774.03;5020446;28;20380;-75
2022/04/04 06:34:12;;;;;;;;;;;;;;;-139.48;100.00;61774.03;5019873;28;19975;-75
2022/04/04 06:36:56;;;;;;;;;;;;;;;-139.48;100.00;61774.03;5034008;28;19935;-75
2022/04/04 06:39:40;;;;;;;;;;;;;;;-139.48;100.00;61774.03;5033969;28;19986;-76
2022/04/04 06:42:24;;;;;;;;;;;;;;;-139.48;100.00;61774.03;5020174;28;19920;-76
2022/04/04 06:45:09;;;;;;;;;;;;;;;-139.48;100.00;61774.03;5032997;28;20027;-76
2022/04/04 06:47:53;;;;;;;;;;;;;;;-139.48;100.00;61774.03;5034763;28;19974;-76
2022/04/04 06:50:37;;;;;;;;;;;;;;;-139.48;100.00;61774.03;5034057;28;19963;-75
2022/04/04 06:53:21;;;;;;;;;;;;;;;-139.48;100.00;61774.03;5019421;28;19939;-76
2022/04/04 06:56:05;;;;;;;;;;;;;;;-139.48;100.00;61774.03;5034552;28;19936;-75
2022/04/04 06:58:51;;;;;;;;;;;;;;;-139.48;100.00;61774.03;5019956;28;19967;-76
2022/04/04 07:01:35;;;;;;;;;;;;;;;-139.48;100.00;61774.03;5033597;28;19924;-76
2022/04/04 07:04:19;;;;;;;;;;;;;;;-139.48;100.00;61774.03;5033466;28;19943;-75
2022/04/04 07:07:06;;;;;;;;;;;;;;;-139.48;100.00;61774.03;5034442;28;19963;-75
2022/04/04 07:09:50;;;;;;;;;;;;;;;-139.48;100.00;61774.03;5019458;28;20020;-75
2022/04/04 07:12:39;;;;;;;;;;;;;;;-139.48;100.00;61774.03;5033373;28;19920;-76
2022/04/04 07:15:23;;;;;;;;;;;;;;;-139.48;100.00;61774.03;5033017;28;19924;-76
2022/04/04 07:18:07;;;;;;;;;;;;;;;-139.48;100.00;61774.03;5034012;28;19920;-76
2022/04/04 07:20:51;;;;;;;;;;;;;;;-139.48;100.00;61774.03;5033128;28;19959;-75
2022/04/04 07:23:35;;;;;;;;;;;;;;;-139.48;100.00;61774.03;5032948;28;20380;-75
2022/04/04 07:26:21;;;;;;;;;;;;;;;-139.48;100.00;61774.03;5033116;28;20408;-75
2022/04/04 07:29:05;;;;;;;;;;;;;;;-139.48;100.00;61774.03;5033065;28;20391;-76
2022/04/04 07:31:50;;;;;;;;;;;;;;;-139.48;100.00;61774.03;5019117;28;20284;-75
2022/04/04 07:34:34;;;;;;;;;;;;;;;-139.48;100.00;61774.03;5032906;28;19924;-75
2022/04/04 07:37:18;;;;;;;;;;;;;;;-139.48;100.00;61774.03;5033034;28;19920;-75
2022/04/04 07:40:02;;;;;;;;;;;;;;;-139.48;100.00;61774.03;5018664;28;20030;-75
2022/04/04 07:42:46;;;;;;;;;;;;;;;-139.48;100.00;61774.03;5033881;28;19919;-75
2022/04/04 07:45:31;;;;;;;;;;;;;;;-139.48;100.00;61774.03;5018908;28;19974;-75
2022/04/04 07:48:15;;;;;;;;;;;;;;;-139.48;100.00;61774.03;5032434;28;20004;-75
2022/04/04 07:50:58;;;;;;;;;;;;;;;-139.48;100.00;61774.03;5032913;28;20046;-75
2022/04/04 07:53:42;;;;;;;;;;;;;;;-139.48;100.00;61774.03;5018874;28;19928;-75
2022/04/04 07:56:26;;;;;;;;;;;;;;;-139.48;100.00;61774.03;5034682;28;20279;-75
2022/04/04 07:59:11;;;;;;;;;;;;;;;-139.48;100.00;61774.03;5037271;28;20387;-75
2022/04/04 08:01:55;;;;;;;;;;;;;;;-139.48;100.00;61774.03;5037868;28;19967;-75
2022/04/04 08:04:39;;;;;;;;;;;;;;;-139.48;100.00;61774.03;5022403;28;20007;-75
2022/04/04 08:07:22;;;;;;;;;;;;;;;-139.48;100.00;61774.03;5036860;28;19923;-75
2022/04/04 08:10:07;;;;;;;;;;;;;;;-139.48;100.00;61774.03;5037739;28;19963;-75
2022/04/04 08:12:51;;;;;;;;;;;;;;;-139.48;100.00;61774.03;5022747;28;20435;-75
2022/04/04 08:15:35;;;;;;;;;;;;;;;-139.48;100.00;61774.03;5036304;28;19924;-75
2022/04/04 08:18:19;;;;;;;;;;;;;;;-139.48;100.00;61774.03;5037907;28;19986;-75
2022/04/04 08:21:03;;;;;;;;;;;;;;;-139.48;100.00;61774.03;5036565;28;19919;-75
2022/04/04 08:23:46;;;;;;;;;;;;;;;-139.48;100.00;61774.03;5037222;28;19920;-75
2022/04/04 08:26:31;;;;;;;;;;;;;;;-139.48;100.00;61774.03;5036484;28;19959;-75
2022/04/04 08:29:15;;;;;;;;;;;;;;;-139.48;100.00;61774.03;5036718;28;19963;-75
2022/04/04 08:31:59;;;;;;;;;;;;;;;-139.48;100.00;61774.03;5036090;28;20435;-75
2022/04/04 08:34:43;;;;;;;;;;;;;;;-139.48;100.00;61774.03;5036877;28;19939;-75
2022/04/04 08:37:27;;;;;;;;;;;;;;;-139.48;100.00;61774.03;5036273;28;19920;-75
2022/04/04 08:40:11;;;;;;;;;;;;;;;-139.48;100.00;61774.03;5036927;28;19959;-75
2022/04/04 08:42:55;;;;;;;;;;;;;;;-139.48;100.00;61774.03;5021888;28;19962;-75
2022/04/04 08:45:39;;;;;;;;;;;;;;;-139.48;100.00;61774.03;5035872;28;20515;-75
2022/04/04 08:48:23;;;;;;;;;;;;;;;-139.48;100.00;61774.03;5022132;28;19962;-75
2022/04/04 08:51:07;;;;;;;;;;;;;;;-139.48;100.00;61774.03;5036022;28;20427;-75
2022/04/04 08:53:51;;;;;;;;;;;;;;;-139.48;100.00;61774.03;5021616;28;19974;-75
2022/04/04 08:56:35;;;;;;;;;;;;;;;-139.48;100.00;61774.03;5036887;28;19919;-75
2022/04/04 08:59:19;;;;;;;;;;;;;;;-139.48;100.00;61774.03;5021889;28;19966;-75
2022/04/04 09:02:03;;;;;;;;;;;;;;;-139.48;100.00;61774.03;5037175;28;19991;-76
2022/04/04 09:04:50;;;;;;;;;;;;;;;-139.48;100.00;61774.03;5035406;28;20442;-76
2022/04/04 09:07:34;;;;;;;;;;;;;;;-139.48;100.00;61774.03;5034999;28;19936;-76
2022/04/04 09:10:18;;;;;;;;;;;;;;;-139.48;100.00;61774.03;5035722;28;19975;-76
2022/04/04 09:13:06;;;;;;;;;;;;;;;-139.48;100.00;61774.03;5021648;28;19944;-76
2022/04/04 09:15:51;;;;;;;;;;;;;;;-139.48;100.00;61774.03;5022591;28;20059;-76
2022/04/04 09:18:35;;;;;;;;;;;;;;;-139.48;100.00;61774.03;5035502;28;19924;-76
2022/04/04 09:21:19;;;;;;;;;;;;;;;-139.48;100.00;61774.03;5036476;28;19920;-76
2022/04/04 09:24:07;;;;;;;;;;;;;;;-139.48;100.00;61774.03;5021628;28;19920;-75
2022/04/04 09:26:51;;;;;;;;;;;;;;;-139.48;100.00;61774.03;5035243;28;19920;-76
2022/04/04 09:29:35;;;;;;;;;;;;;;;-139.48;100.00;61774.03;5035051;28;19963;-76
2022/04/04 09:32:19;;;;;;;;;;;;;;;-139.48;100.00;61774.03;5034977;28;19920;-75
2022/04/04 09:35:09;;;;;;;;;;;;;;;-139.48;100.00;61774.03;5035020;28;19983;-75
2022/04/04 09:37:53;;;;;;;;;;;;;;;-139.48;100.00;61774.03;5035190;28;19924;-76
2022/04/04 09:40:37;;;;;;;;;;;;;;;-139.48;100.00;61774.03;5021111;28;19955;-75
2022/04/04 09:43:21;;;;;;;;;;;;;;;-139.48;100.00;61774.03;5035760;28;19958;-76
2022/04/04 09:46:11;;;;;;;;;;;;;;;-139.48;100.00;61774.03;5034645;28;20061;-76
2022/04/04 09:49:09;;;;;;;;;;;;;;;-139.48;100.00;61774.03;5035924;28;19983;-76
2022/04/04 09:51:53;;;;;;;;;;;;;;;-139.48;100.00;61774.03;5035827;28;19963;-76
2022/04/04 09:54:40;;;;;;;;;;;;;;;8.42;53.09;100655.81;5020617;28;19924;-75
2022/04/04 09:57:28;;;;;;;;;;;;;;;8.42;52.97;100645.19;5034841;28;20402;-75
2022/04/04 10:00:14;;;;;;;;;;;;;;;9.72;50.47;100640.53;5021038;28;19924;-74
2022/04/04 10:02:58;;;;;;;;;;;;;;;9.72;50.47;100640.53;5034423;28;19920;-76
2022/04/04 10:06:02;;;;;;;;;;;;;;;9.21;49.57;100636.91;5034272;28;19924;-74
2022/04/04 10:08:46;;;;;;;;;;;;;;;9.97;48.85;100638.31;5035563;28;19919;-76
2022/04/04 10:11:30;;;;;;;;;;;;;;;9.89;50.05;100622.13;5034231;28;19919;-75
2022/04/04 10:14:17;;;;;;;;;;;;;;;9.22;47.13;100630.63;5033949;28;19924;-73
2022/04/04 10:17:01;;;;;;;;;;;;;;;9.92;46.72;100615.72;5020076;28;19920;-73
2022/04/04 10:19:45;;;;;;;;;;;;;;;10.60;43.76;100601.59;5033496;28;19920;-74
2022/04/04 10:22:29;;;;;;;;;;;;;;;11.84;41.40;100601.63;5034084;28;19935;-73
2022/04/04 10:25:13;;;;;;;;;;;;;;;-139.48;100.00;61774.03;5034372;28;19974;-76
2022/04/04 10:27:59;;;;;;;;;;;;;;;-139.48;100.00;61774.03;5034237;28;19919;-74
2022/04/04 10:30:42;;;;;;;;;;;;;;;-139.48;100.00;61774.03;5034086;28;19966;-75
2022/04/04 10:33:26;;;;;;;;;;;;;;;-139.48;100.00;61774.03;5034998;28;19943;-75
2022/04/04 10:36:11;;;;;;;;;;;;;;;-139.48;100.00;61774.03;5033746;28;19920;-75
2022/04/04 10:38:55;;;;;;;;;;;;;;;-139.48;100.00;61774.03;5034975;28;20293;-75
2022/04/04 10:41:39;;;;;;;;;;;;;;;-139.48;100.00;61774.03;5033761;28;20422;-75
2022/04/04 10:44:44;;;;;;;;;;;;;;;-139.48;100.00;61774.03;5033726;28;19958;-76
2022/04/04 10:47:29;;;;;;;;;;;;;;;-139.48;100.00;61774.03;5033870;28;19920;-76
2022/04/04 10:50:22;;;;;;;;;;;;;;;-139.48;100.00;61774.03;5033499;28;19951;-75
2022/04/04 10:53:08;;;;;;;;;;;;;;;-139.48;100.00;61774.03;5034412;28;20360;-75
2022/04/04 10:55:54;;;;;;;;;;;;;;;-139.48;100.00;61774.03;5019418;28;20391;-75
2022/04/04 10:58:38;;;;;;;;;;;;;;;-139.48;100.00;61774.03;5019515;28;19959;-75
2022/04/04 11:01:22;;;;;;;;;;;;;;;-139.48;100.00;61774.03;5033579;28;20411;-76
2022/04/04 11:04:06;;;;;;;;;;;;;;;-139.48;100.00;61774.03;5033681;28;19963;-76
2022/04/04 11:09:53;;;;;;;;;;;;;;;-139.48;100.00;61774.03;5033644;28;20396;-76
2022/04/04 11:12:56;;;;;;;;;;;;;;;-139.48;100.00;61774.03;5034563;28;20391;-76
2022/04/04 11:15:44;;;;;;;;;;;;;;;-139.48;100.00;61774.03;5034284;28;20284;-75
2022/04/04 11:18:48;;;;;;;;;;;;;;;-139.48;100.00;61774.03;5019314;28;20348;-75
2022/04/04 11:21:42;;;;;;;;;;;;;;;-139.48;100.00;61774.03;5034222;28;19919;-75
2022/04/04 11:24:30;;;;;;;;;;;;;;;-139.48;100.00;61774.03;5034083;28;20289;-75
2022/04/04 11:27:13;;;;;;;;;;;;;;;-139.48;100.00;61774.03;5019611;28;20323;-75
2022/04/04 11:29:58;;;;;;;;;;;;;;;-139.48;100.00;61774.03;5019106;28;19947;-76
2022/04/04 11:32:46;;;;;;;;;;;;;;;-139.48;100.00;61774.03;5033422;28;19920;-76
2022/04/04 11:35:31;;;;;;;;;;;;;;;-139.48;100.00;61774.03;5032806;28;20434;-75
2022/04/04 11:38:17;;;;;;;;;;;;;;;-139.48;100.00;61774.03;5033075;28;19967;-75
2022/04/04 11:41:01;;;;;;;;;;;;;;;-139.48;100.00;61774.03;5034053;28;20346;-75
2022/04/04 11:43:50;;;;;;;;;;;;;;;-139.48;100.00;61774.03;5032975;28;20008;-75
2022/04/04 11:46:34;;;;;;;;;;;;;;;-139.48;100.00;61774.03;5033219;28;20383;-76
2022/04/04 11:49:18;;;;;;;;;;;;;;;-139.48;100.00;61774.03;5033121;28;20418;-75
2022/04/04 11:52:04;;;;;;;;;;;;;;;-139.48;100.00;61774.03;5018987;28;19919;-75
2022/04/04 11:54:51;;;;;;;;;;;;;;;-139.48;100.00;61774.03;5033771;28;20429;-75
2022/04/04 11:57:35;;;;;;;;;;;;;;;-139.48;100.00;61774.03;5033541;28;19920;-76
2022/04/04 12:00:20;;;;;;;;;;;;;;;-139.48;100.00;61774.03;5032972;28;20019;-76
2022/04/04 12:03:04;;;;;;;;;;;;;;;-139.48;100.00;61774.03;5019078;28;19936;-74
2022/04/04 12:05:49;;;;;;;;;;;;;;;-139.48;100.00;61774.03;5033415;28;20403;-73
2022/04/04 12:08:35;;;;;;;;;;;;;;;-139.48;100.00;61774.03;5032520;28;19959;-74
2022/04/04 12:11:31;;;;;;;;;;;;;;;-139.48;100.00;61774.03;5033687;28;20280;-76
2022/04/04 12:14:15;;;;;;;;;;;;;;;-139.48;100.00;61774.03;5032159;28;19982;-76
2022/04/04 12:16:59;;;;;;;;;;;;;;;-139.48;100.00;61774.03;5032645;28;19967;-73
2022/04/04 12:19:44;;;;;;;;;;;;;;;-139.48;100.00;61774.03;5032486;28;19924;-73
2022/04/04 12:25:36;;;;;;;;;;;;;;;-139.48;100.00;61774.03;5032512;28;19975;-75
2022/04/04 12:28:22;;;;;;;;;;;;;;;-139.48;100.00;61774.03;5032530;28;19920;-75
2022/04/04 12:31:10;;;;;;;;;;;;;;;-139.48;100.00;61774.03;5033513;28;19920;-76
2022/04/04 12:34:00;;;;;;;;;;;;;;;-139.48;100.00;61774.03;5032413;28;20419;-75
2022/04/04 12:36:45;;;;;;;;;;;;;;;-139.48;100.00;61774.03;5018830;28;19936;-76
2022/04/04 12:39:29;;;;;;;;;;;;;;;-139.48;100.00;61774.03;5033438;28;19920;-76
2022/04/04 12:42:13;;;;;;;;;;;;;;;-139.48;100.00;61774.03;5033218;28;20380;-76
2022/04/04 12:44:57;;;;;;;;;;;;;;;-139.48;100.00;61774.03;5036315;28;19920;-76
2022/04/04 12:47:54;;;;;;;;;;;;;;;-139.48;100.00;61774.03;5036823;28;19919;-76
2022/04/04 12:50:48;;;;;;;;;;;;;;;-139.48;100.00;61774.03;5021813;28;19920;-75
2022/04/04 12:53:45;;;;;;;;;;;;;;;-139.48;100.00;61774.03;5035675;28;20398;-75
2022/04/04 12:56:31;;;;;;;;;;;;;;;-139.48;100.00;61774.03;5021846;28;19967;-76
2022/04/04 12:59:15;;;;;;;;;;;;;;;-139.48;100.00;61774.03;5035875;28;19920;-76
2022/04/04 13:02:04;;;;;;;;;;;;;;;-139.48;100.00;61774.03;5035763;28;19967;-75
2022/04/04 13:04:48;;;;;;;;;;;;;;;-139.48;100.00;61774.03;5035348;28;19919;-76
2022/04/04 13:07:31;;;;;;;;;;;;;;;-139.48;100.00;61774.03;5021728;28;19920;-76
2022/04/04 13:10:15;;;;;;;;;;;;;;;-139.48;100.00;61774.03;5035451;28;20288;-76
2022/04/04 13:13:09;;;;;;;;;;;;;;;-139.48;100.00;61774.03;5035531;28;20291;-76
2022/04/04 13:15:53;;;;;;;;;;;;;;;-139.48;100.00;61774.03;5035165;28;19963;-76
2022/04/04 13:18:37;;;;;;;;;;;;;;;-139.48;100.00;61774.03;5021541;28;19951;-76
2022/04/04 13:21:21;;;;;;;;;;;;;;;-139.48;100.00;61774.03;5035348;28;19963;-76
2022/04/04 13:24:08;;;;;;;;;;;;;;;-139.48;100.00;61774.03;5036382;28;20332;-75
2022/04/04 13:26:52;;;;;;;;;;;;;;;-139.48;100.00;61774.03;5021685;28;20326;-76
2022/04/04 13:29:36;;;;;;;;;;;;;;;-139.48;100.00;61774.03;5021167;28;20288;-75
2022/04/04 13:32:20;;;;;;;;;;;;;;;-139.48;100.00;61774.03;5036613;28;20276;-76
2022/04/04 13:35:04;;;;;;;;;;;;;;;-139.48;100.00;61774.03;5021093;28;19923;-76
2022/04/04 13:37:48;;;;;;;;;;;;;;;-139.48;100.00;61774.03;5034917;28;19920;-75
2022/04/04 13:40:32;;;;;;;;;;;;;;;-139.48;100.00;61774.03;5021467;28;19920;-76
2022/04/04 13:43:16;;;;;;;;;;;;;;;-139.48;100.00;61774.03;5036112;28;20002;-76
2022/04/04 13:46:00;;;;;;;;;;;;;;;-139.48;100.00;61774.03;5034716;28;20395;-76
2022/04/04 13:48:43;;;;;;;;;;;;;;;-139.48;100.00;61774.03;5021014;28;19920;-76
2022/04/04 13:51:29;;;;;;;;;;;;;;;-139.48;100.00;61774.03;5034972;28;19996;-76
2022/04/04 13:54:14;;;;;;;;;;;;;;;-139.48;100.00;61774.03;5035302;28;20265;-76
2022/04/04 13:56:58;;;;;;;;;;;;;;;-139.48;100.00;61774.03;5020773;28;20025;-76